.
WxDataArchive / Data Records for 2006-03-17
2006-03-16 March 2006 2006-03-18

Data Records for Friday, 17 March 2006

Time	Temp	Chill	HIndex	Humid	Dewpt	 Wind 	HiWind	WindDir	Rain 	Barom 
-----	----	-----	------	-----	-----	------	------	-------	-----	----- 
00:00	30.7	30.7	30.7	91	28.4	2	7	112	0.00	30.085 
00:05	30.7	30.7	30.7	91	28.4	3	9	112	0.00	30.085 
00:10	30.7	30.7	30.7	91	28.4	2	6	90	0.00	30.085 
00:15	30.7	30.7	30.7	91	28.4	1	3	112	0.00	30.085 
00:20	30.7	30.7	30.7	91	28.4	2	6	112	0.00	30.085 
00:25	30.7	30.7	30.7	91	28.4	1	4	45	0.00	30.085 
00:30	30.7	30.7	30.7	91	28.4	2	5	90	0.00	30.088 
00:35	30.7	30.7	30.7	91	28.4	2	5	68	0.00	30.088 
00:40	30.7	30.7	30.7	91	28.4	2	5	90	0.00	30.088 
00:45	30.7	30.7	30.7	91	28.4	1	4	112	0.00	30.099 
00:50	30.7	30.7	30.7	91	28.4	2	4	112	0.00	30.099 
00:55	30.7	30.7	30.7	91	28.4	2	6	112	0.00	30.099 
01:00	30.7	30.7	30.7	91	28.4	1	5	112	0.00	30.095 
01:05	30.7	30.7	30.7	91	28.4	1	5	112	0.00	30.095 
01:10	30.7	30.7	30.7	90	28.1	1	4	22	0.00	30.095 
01:15	30.7	30.7	30.7	90	28.1	1	4	45	0.00	30.101 
01:20	30.7	30.7	30.7	90	28.1	1	4	68	0.00	30.101 
01:25	30.7	30.7	30.7	90	28.1	2	6	68	0.00	30.101 
01:30	30.6	30.6	30.6	90	28.0	2	4	68	0.00	30.106 
01:35	30.6	30.6	30.6	90	28.0	2	5	112	0.00	30.106 
01:40	30.4	30.4	30.4	90	27.8	2	5	22	0.00	30.106 
01:45	30.3	30.3	30.3	90	27.7	2	6	68	0.00	30.112 
01:50	30.3	30.3	30.3	90	27.7	2	6	112	0.00	30.112 
01:55	30.3	30.3	30.3	90	27.7	2	4	112	0.00	30.112 
02:00	30.3	30.3	30.3	90	27.7	1	5	112	0.00	30.120 
02:05	30.3	30.3	30.3	90	27.7	1	3	112	0.00	30.120 
02:10	30.3	30.3	30.3	90	27.7	1	3	90	0.00	30.120 
02:15	30.4	30.4	30.4	89	27.6	2	4	45	0.00	30.123 
02:20	30.4	30.4	30.4	89	27.6	1	3	90	0.00	30.123 
02:25	30.6	30.6	30.6	89	27.8	1	4	112	0.00	30.123 
02:30	30.6	30.6	30.6	89	27.8	1	3	112	0.00	30.132 
02:35	30.6	30.6	30.6	89	27.8	0	1	112	0.00	30.132 
02:40	30.6	30.6	30.6	89	27.8	0	2	68	0.00	30.132 
02:45	30.6	30.6	30.6	89	27.8	0	3	112	0.00	30.136 
02:50	30.6	30.6	30.6	89	27.8	1	2	112	0.00	30.136 
02:55	30.6	30.6	30.6	89	27.8	0	2	90	0.00	30.136 
03:00	30.6	30.6	30.6	89	27.8	0	1	90	0.00	30.138 
03:05	30.7	30.7	30.7	89	27.8	0	1	90	0.00	30.138 
03:10	30.7	30.7	30.7	89	27.8	0	1	90	0.00	30.138 
03:15	30.7	30.7	30.7	88	27.6	0	2	68	0.00	30.147 
03:20	30.7	30.7	30.7	88	27.6	0	2	68	0.00	30.147 
03:25	30.9	30.9	30.9	88	27.8	0	1	68	0.00	30.147 
03:30	30.9	30.9	30.9	88	27.8	0	1	68	0.00	30.152 
03:35	30.9	30.9	30.9	88	27.8	0	1	112	0.00	30.152 
03:40	30.9	30.9	30.9	88	27.8	1	3	135	0.00	30.152 
03:45	30.9	30.9	30.9	88	27.8	0	2	135	0.00	30.157 
03:50	31.0	31.0	31.0	87	27.6	0	3	90	0.00	30.157 
03:55	31.0	31.0	31.0	86	27.3	2	4	112	0.00	30.157 
04:00	31.0	31.0	31.0	86	27.3	1	3	135	0.00	30.163 
04:05	31.0	31.0	31.0	86	27.3	1	3	68	0.00	30.163 
04:10	31.0	31.0	31.0	87	27.6	0	3	45	0.00	30.163 
04:15	30.9	30.9	30.9	86	27.2	0	2	90	0.00	30.165 
04:20	30.9	30.9	30.9	86	27.2	1	3	112	0.00	30.165 
04:25	30.7	30.7	30.7	86	27.0	0	1	112	0.00	30.165 
04:30	30.7	30.7	30.7	86	27.0	1	2	45	0.00	30.168 
04:35	30.7	30.7	30.7	86	27.0	1	3	68	0.00	30.168 
04:40	30.7	30.7	30.7	86	27.0	0	2	135	0.00	30.168 
04:45	30.7	30.7	30.7	86	27.0	0	2	90	0.00	30.175 
04:50	30.6	30.6	30.6	86	26.9	0	1	68	0.00	30.175 
04:55	30.4	30.4	30.4	86	26.7	0	2	112	0.00	30.175 
05:00	30.3	30.3	30.3	86	26.6	0	1	112	0.00	30.186 
05:05	30.3	30.3	30.3	86	26.6	0	1	90	0.00	30.186 
05:10	30.1	30.1	30.1	86	26.4	0	1	90	0.00	30.186 
05:15	30.0	30.0	30.0	86	26.3	0	0	---	0.00	30.198 
05:20	29.8	29.8	29.8	86	26.1	0	1	68	0.00	30.198 
05:25	29.7	29.7	29.7	86	26.0	0	2	22	0.00	30.198 
05:30	29.5	29.5	29.5	86	25.8	0	1	22	0.00	30.204 
05:35	29.5	29.5	29.5	86	25.8	0	1	0	0.00	30.204 
05:40	29.5	29.5	29.5	86	25.8	0	0	---	0.00	30.204 
05:45	29.5	29.5	29.5	86	25.8	0	0	---	0.00	30.213 
05:50	29.4	29.4	29.4	86	25.7	0	0	---	0.00	30.213 
05:55	29.4	29.4	29.4	86	25.7	0	1	0	0.00	30.213 
06:00	29.3	29.3	29.3	86	25.6	0	2	0	0.00	30.221 
06:05	29.3	29.3	29.3	86	25.6	0	2	0	0.00	30.221 
06:10	29.0	29.0	29.0	86	25.3	0	2	45	0.00	30.221 
06:15	28.8	28.8	28.8	86	25.2	0	1	45	0.00	30.236 
06:20	28.4	28.4	28.4	83	23.9	1	3	68	0.00	30.236 
06:25	28.2	28.2	28.2	81	23.1	0	2	68	0.00	30.236 
06:30	28.1	28.1	28.1	81	23.0	1	5	112	0.00	30.247 
06:35	27.9	27.9	27.9	81	22.8	1	4	68	0.00	30.247 
06:40	27.8	27.8	27.8	80	22.4	0	3	45	0.00	30.247 
06:45	27.5	27.5	27.5	80	22.2	1	3	90	0.00	30.256 
06:50	27.3	27.3	27.3	80	22.0	0	3	68	0.00	30.256 
06:55	27.2	27.2	27.2	80	21.9	0	1	68	0.00	30.256 
07:00	27.0	27.0	27.0	80	21.7	0	1	68	0.00	30.270 
07:05	26.9	26.9	26.9	80	21.6	0	1	68	0.00	30.270 
07:10	26.9	26.9	26.9	81	21.9	0	1	45	0.00	30.270 
07:15	27.0	27.0	27.0	81	22.0	0	2	22	0.00	30.281 
07:20	27.0	27.0	27.0	81	22.0	0	1	68	0.00	30.281 
07:25	27.3	27.3	27.3	80	22.0	0	2	22	0.00	30.281 
07:30	27.6	27.6	27.6	81	22.5	1	3	90	0.00	30.283 
07:35	27.8	27.8	27.8	80	22.4	0	2	90	0.00	30.283 
07:40	28.1	28.1	28.1	80	22.7	1	3	112	0.00	30.283 
07:45	28.2	28.2	28.2	79	22.5	1	3	112	0.00	30.285 
07:50	28.1	28.1	28.1	78	22.1	1	3	112	0.00	30.285 
07:55	28.1	28.1	28.1	78	22.1	1	5	90	0.00	30.285 
08:00	28.1	28.1	28.1	78	22.1	1	4	90	0.00	30.292 
08:05	28.1	28.1	28.1	77	21.8	1	4	68	0.00	30.292 
08:10	27.9	27.9	27.9	78	21.9	1	3	68	0.00	30.292 
08:15	27.9	27.9	27.9	78	21.9	1	5	112	0.00	30.300 
08:20	27.5	27.5	27.5	78	21.6	1	4	112	0.00	30.300 
08:25	27.3	27.3	27.3	79	21.7	1	4	45	0.00	30.300 
08:30	27.2	27.2	27.2	79	21.6	1	3	90	0.00	30.307 
08:35	27.2	27.2	27.2	79	21.6	1	3	112	0.00	30.307 
08:40	27.2	27.2	27.2	79	21.6	1	3	45	0.00	30.307 
08:45	27.2	27.2	27.2	78	21.3	1	2	45	0.00	30.313 
08:50	27.3	27.3	27.3	79	21.7	1	4	112	0.00	30.313 
08:55	27.6	27.6	27.6	80	22.3	1	3	68	0.00	30.313 
09:00	28.5	28.5	28.5	81	23.4	1	3	90	0.00	30.316 
09:05	29.4	29.4	29.4	78	23.4	1	4	45	0.00	30.316 
09:10	29.8	29.8	29.8	76	23.2	2	5	112	0.00	30.316 
09:15	30.0	30.0	30.0	76	23.4	2	5	90	0.00	30.308 
09:20	30.1	30.1	30.1	75	23.2	2	5	90	0.00	30.308 
09:25	30.0	30.0	30.0	73	22.4	2	5	45	0.00	30.308 
09:30	30.3	30.3	30.3	75	23.3	1	3	45	0.00	30.311 
09:35	30.7	30.7	30.7	70	22.1	2	6	90	0.00	30.311 
09:40	31.2	31.2	31.2	68	21.9	2	5	90	0.00	30.311 
09:45	31.3	31.3	31.3	68	22.0	1	4	45	0.00	30.315 
09:50	31.5	31.5	31.5	69	22.5	2	5	68	0.01	30.315 
09:55	31.8	31.8	31.8	68	22.5	1	3	45	0.01	30.315 
10:00	31.8	31.8	31.8	68	22.5	2	5	45	0.00	30.315 
10:05	31.9	31.9	31.9	67	22.2	2	6	90	0.00	30.315 
10:10	32.1	32.1	32.1	67	22.4	1	4	45	0.00	30.315 
10:15	32.4	32.4	32.4	65	22.0	3	11	112	0.01	30.318 
10:20	32.2	32.2	32.2	65	21.8	3	7	112	0.01	30.318 
10:25	32.1	32.1	32.1	63	20.9	2	5	68	0.00	30.318 
10:30	32.2	32.2	32.2	63	21.0	2	6	90	0.01	30.320 
10:35	32.5	32.5	32.5	65	22.1	2	6	68	0.00	30.320 
10:40	32.7	32.7	32.7	64	21.9	2	6	112	0.01	30.320 
10:45	32.9	32.9	32.9	64	22.1	2	5	90	0.00	30.326 
10:50	33.2	33.2	33.2	63	22.0	2	6	112	0.00	30.326 
10:55	33.5	33.5	33.5	64	22.6	0	3	68	0.01	30.326 
11:00	33.8	33.8	33.8	62	22.2	2	6	90	0.00	30.327 
11:05	33.5	33.5	33.5	62	21.9	1	3	45	0.01	30.327 
11:10	33.8	33.8	33.8	64	22.9	1	3	45	0.00	30.327 
11:15	34.3	34.3	34.3	61	22.3	1	3	90	0.00	30.329 
11:20	34.3	34.3	34.3	58	21.1	1	3	45	0.01	30.329 
11:25	34.6	34.6	34.6	60	22.2	1	3	45	0.00	30.329 
11:30	34.3	34.3	34.3	58	21.1	2	9	45	0.00	30.331 
11:35	34.6	34.6	34.6	60	22.2	1	2	0	0.01	30.331 
11:40	34.9	34.9	34.9	58	21.6	2	4	112	0.00	30.331 
11:45	34.9	34.9	34.9	61	22.8	2	6	112	0.00	30.331 
11:50	34.9	34.9	34.9	62	23.2	2	5	112	0.00	30.331 
11:55	34.7	34.7	34.7	64	23.8	1	3	0	0.00	30.331 
12:00	35.0	35.0	35.0	62	23.3	1	2	45	0.00	30.330 
12:05	35.3	35.3	35.3	63	24.0	1	4	45	0.01	30.330 
12:10	35.3	35.3	35.3	62	23.6	2	4	45	0.00	30.330 
12:15	35.5	35.5	35.5	61	23.4	2	7	90	0.00	30.332 
12:20	35.6	35.6	35.6	57	21.9	2	7	112	0.00	30.332 
12:25	35.6	35.6	35.6	60	23.1	3	7	90	0.00	30.332 
12:30	35.9	35.9	35.9	61	23.8	2	5	45	0.00	30.329 
12:35	36.3	36.3	36.3	62	24.5	1	3	45	0.00	30.329 
12:40	36.6	36.6	36.6	60	24.0	2	4	45	0.00	30.329 
12:45	36.5	36.5	36.5	59	23.6	1	4	22	0.00	30.328 
12:50	37.0	37.0	37.0	61	24.8	1	4	22	0.00	30.328 
12:55	37.0	37.0	37.0	55	22.4	1	3	22	0.01	30.328 
13:00	37.0	37.0	37.0	61	24.8	2	4	45	0.00	30.330 
13:05	37.2	37.2	37.2	60	24.6	2	5	45	0.00	30.330 
13:10	37.2	37.2	37.2	55	22.5	1	4	45	0.00	30.330 
13:15	37.6	37.6	37.6	58	24.2	2	5	68	0.00	30.331 
13:20	37.6	37.6	37.6	58	24.2	2	6	22	0.00	30.331 
13:25	38.0	38.0	38.0	58	24.6	1	3	0	0.00	30.331 
13:30	37.5	37.5	37.5	55	22.8	1	5	338	0.00	30.326 
13:35	37.3	37.3	37.3	55	22.6	1	3	22	0.00	30.326 
13:40	37.5	37.5	37.5	58	24.1	1	3	338	0.00	30.326 
13:45	38.2	38.2	38.2	56	23.9	2	5	0	0.00	30.324 
13:50	38.3	38.3	38.3	57	24.4	1	3	315	0.00	30.324 
13:55	38.5	38.5	38.5	53	22.9	2	7	315	0.00	30.324 
14:00	38.8	38.8	38.8	53	23.2	1	4	0	0.00	30.323 
14:05	39.5	39.5	39.5	57	25.5	1	3	270	0.00	30.323 
14:10	39.9	39.9	39.9	50	22.8	1	4	338	0.00	30.323 
14:15	40.1	40.1	40.1	54	24.8	1	4	0	0.00	30.316 
14:20	39.9	39.9	39.9	52	23.7	2	4	338	0.00	30.316 
14:25	39.6	39.6	39.6	55	24.8	2	6	0	0.00	30.316 
14:30	38.8	38.8	38.8	50	21.8	1	4	338	0.00	30.317 
14:35	38.9	38.9	38.9	49	21.4	2	4	0	0.00	30.317 
14:40	39.3	39.3	39.3	53	23.6	2	6	22	0.00	30.317 
14:45	39.5	39.5	39.5	52	23.3	1	3	68	0.00	30.314 
14:50	39.5	39.5	39.5	51	22.9	1	6	270	0.00	30.314 
14:55	39.9	39.9	39.9	52	23.7	2	4	0	0.00	30.314 
15:00	39.3	39.3	39.3	51	22.7	1	6	0	0.00	30.312 
15:05	40.3	40.3	40.3	51	23.6	1	4	0	0.00	30.312 
15:10	40.3	40.3	40.3	48	22.2	2	5	22	0.00	30.312 
15:15	40.2	40.2	40.2	47	21.6	2	4	0	0.00	30.310 
15:20	39.9	39.9	39.9	46	20.8	1	3	315	0.00	30.310 
15:25	40.5	40.5	40.5	51	23.8	1	5	22	0.00	30.310 
15:30	40.6	40.6	40.6	48	22.5	3	7	22	0.00	30.305 
15:35	40.9	40.9	40.9	49	23.2	2	6	292	0.00	30.305 
15:40	40.9	40.9	40.9	47	22.2	1	7	315	0.00	30.305 
15:45	41.1	41.1	41.1	48	22.9	2	7	45	0.00	30.304 
15:50	40.9	40.9	40.9	46	21.7	2	6	22	0.00	30.304 
15:55	40.8	40.8	40.8	45	21.1	2	9	45	0.00	30.304 
16:00	40.3	40.3	40.3	48	22.2	1	3	45	0.00	30.304 
16:05	40.2	40.2	40.2	49	22.6	2	5	270	0.00	30.304 
16:10	40.5	40.5	40.5	48	22.4	1	6	0	0.00	30.304 
16:15	40.5	40.5	40.5	46	21.4	1	3	0	0.00	30.305 
16:20	40.5	40.5	40.5	47	21.9	1	4	292	0.00	30.305 
16:25	40.6	40.6	40.6	46	21.5	2	6	45	0.00	30.305 
16:30	40.6	40.6	40.6	47	22.0	2	11	338	0.00	30.296 
16:35	40.6	40.6	40.6	46	21.5	2	5	22	0.00	30.296 
16:40	40.5	40.5	40.5	45	20.8	1	4	45	0.00	30.296 
16:45	40.5	40.5	40.5	47	21.9	1	4	338	0.00	30.293 
16:50	40.5	40.5	40.5	44	20.3	2	4	0	0.00	30.293 
16:55	40.2	40.2	40.2	45	20.6	1	4	22	0.00	30.293 
17:00	40.1	40.1	40.1	43	19.4	2	5	0	0.00	30.293 
17:05	40.1	40.1	40.1	45	20.5	1	3	0	0.00	30.293 
17:10	39.9	39.9	39.9	43	19.2	1	3	292	0.00	30.293 
17:15	39.8	39.8	39.8	44	19.7	2	5	338	0.00	30.294 
17:20	39.6	39.6	39.6	44	19.5	2	4	22	0.00	30.294 
17:25	39.5	39.5	39.5	43	18.9	1	4	315	0.00	30.294 
17:30	39.3	39.3	39.3	45	19.8	2	5	338	0.00	30.294 
17:35	39.5	39.5	39.5	45	19.9	2	4	338	0.00	30.294 
17:40	39.3	39.3	39.3	43	18.7	1	3	0	0.00	30.294 
17:45	39.2	39.2	39.2	44	19.1	1	4	0	0.00	30.293 
17:50	39.1	39.1	39.1	44	19.0	1	3	315	0.00	30.293 
17:55	38.9	38.9	38.9	45	19.4	1	2	292	0.00	30.293 
18:00	38.8	38.8	38.8	44	18.8	1	6	292	0.00	30.294 
18:05	38.8	38.8	38.8	46	19.8	1	5	270	0.00	30.294 
18:10	38.5	38.5	38.5	44	18.5	1	3	0	0.00	30.294 
18:15	38.3	38.3	38.3	45	18.8	1	5	338	0.00	30.298 
18:20	38.2	38.2	38.2	45	18.8	2	5	292	0.00	30.298 
18:25	37.9	37.9	37.9	46	19.0	1	2	315	0.00	30.298 
18:30	37.8	37.8	37.8	46	18.9	1	4	0	0.00	30.296 
18:35	37.5	37.5	37.5	47	19.1	0	3	0	0.00	30.296 
18:40	37.2	37.2	37.2	48	19.3	0	1	292	0.00	30.296 
18:45	37.0	37.0	37.0	47	18.7	0	2	315	0.00	30.298 
18:50	36.9	36.9	36.9	48	19.1	0	2	315	0.00	30.298 
18:55	36.6	36.6	36.6	49	19.3	0	3	315	0.00	30.298 
19:00	36.3	36.3	36.3	48	18.5	0	3	270	0.00	30.298 
19:05	36.3	36.3	36.3	49	19.0	0	1	315	0.00	30.298 
19:10	36.0	36.0	36.0	50	19.2	0	2	315	0.00	30.298 
19:15	35.9	35.9	35.9	50	19.1	0	3	292	0.00	30.296 
19:20	35.8	35.8	35.8	50	19.0	0	2	292	0.00	30.296 
19:25	35.6	35.6	35.6	52	19.7	0	2	292	0.00	30.296 
19:30	35.6	35.6	35.6	52	19.7	1	4	270	0.00	30.297 
19:35	35.5	35.5	35.5	53	20.1	0	2	270	0.00	30.297 
19:40	35.2	35.2	35.2	54	20.2	1	2	270	0.00	30.297 
19:45	35.0	35.0	35.0	54	20.1	1	4	338	0.00	30.300 
19:50	34.9	34.9	34.9	55	20.4	0	3	338	0.00	30.300 
19:55	34.7	34.7	34.7	55	20.2	1	4	338	0.00	30.300 
20:00	34.6	34.6	34.6	55	20.1	1	3	248	0.00	30.304 
20:05	34.3	34.3	34.3	55	19.8	1	4	338	0.00	30.304 
20:10	34.1	34.1	34.1	56	20.1	1	3	315	0.00	30.304 
20:15	34.0	34.0	34.0	56	20.0	2	6	338	0.00	30.307 
20:20	33.8	33.8	33.8	57	20.2	2	6	270	0.00	30.307 
20:25	33.5	33.5	33.5	58	20.3	1	5	270	0.00	30.307 
20:30	33.4	33.4	33.4	58	20.2	2	7	270	0.00	30.314 
20:35	33.2	33.2	33.2	60	20.8	2	6	292	0.00	30.314 
20:40	32.9	32.9	32.9	61	20.9	2	5	270	0.00	30.314 
20:45	32.8	32.8	32.8	62	21.2	2	5	270	0.00	30.322 
20:50	32.5	32.5	32.5	62	20.9	2	5	315	0.00	30.322 
20:55	32.2	32.2	32.2	63	21.0	2	5	338	0.00	30.322 
21:00	32.1	32.1	32.1	64	21.3	2	5	292	0.00	30.326 
21:05	31.9	31.9	31.9	65	21.5	2	6	338	0.00	30.326 
21:10	31.6	31.6	31.6	65	21.2	2	7	270	0.00	30.326 
21:15	31.5	31.5	31.5	65	21.1	2	7	315	0.00	30.323 
21:20	31.3	31.3	31.3	65	20.9	2	5	338	0.00	30.323 
21:25	31.2	31.2	31.2	65	20.8	2	7	270	0.00	30.323 
21:30	31.0	31.0	31.0	66	21.0	3	7	292	0.00	30.331 
21:35	30.9	30.9	30.9	67	21.3	2	4	292	0.00	30.331 
21:40	30.6	30.6	30.6	67	21.0	3	8	270	0.00	30.331 
21:45	30.4	30.4	30.4	68	21.1	2	6	292	0.00	30.329 
21:50	30.3	30.3	30.3	69	21.4	1	4	338	0.00	30.329 
21:55	30.0	30.0	30.0	69	21.1	1	4	270	0.00	30.329 
22:00	29.8	29.8	29.8	69	20.9	3	6	292	0.00	30.323 
22:05	29.7	29.7	29.7	70	21.1	2	7	315	0.00	30.323 
22:10	29.5	29.5	29.5	70	20.9	1	4	292	0.00	30.323 
22:15	29.4	29.4	29.4	71	21.2	1	5	292	0.00	30.327 
22:20	29.3	29.3	29.3	72	21.4	1	4	315	0.00	30.327 
22:25	29.1	29.1	29.1	72	21.2	1	3	338	0.00	30.327 
22:30	29.1	29.1	29.1	72	21.2	1	5	270	0.00	30.326 
22:35	29.0	29.0	29.0	73	21.4	1	5	338	0.00	30.326 
22:40	28.8	28.8	28.8	73	21.3	1	5	338	0.00	30.326 
22:45	28.8	28.8	28.8	73	21.3	1	3	338	0.00	30.328 
22:50	28.7	28.7	28.7	74	21.5	1	3	338	0.00	30.328 
22:55	28.5	28.5	28.5	74	21.3	1	2	338	0.00	30.328 
23:00	28.4	28.4	28.4	74	21.2	1	5	292	0.00	30.330 
23:05	28.4	28.4	28.4	75	21.5	1	3	315	0.00	30.330 
23:10	28.2	28.2	28.2	75	21.3	1	3	315	0.00	30.330 
23:15	28.2	28.2	28.2	75	21.3	1	3	292	0.00	30.330 
23:20	28.1	28.1	28.1	76	21.5	0	2	292	0.00	30.330 
23:25	27.9	27.9	27.9	76	21.3	0	3	292	0.00	30.330 
23:30	27.8	27.8	27.8	76	21.2	1	4	315	0.00	30.320 
23:35	27.8	27.8	27.8	77	21.5	1	4	270	0.00	30.320 
23:40	27.8	27.8	27.8	77	21.5	1	3	270	0.00	30.320 
23:45	27.6	27.6	27.6	77	21.4	1	4	292	0.00	30.320 
23:50	27.5	27.5	27.5	77	21.3	1	3	315	0.00	30.320 
23:55	27.5	27.5	27.5	77	21.3	1	3	248	0.00	30.320 

CoCoRaHS
IN-AL-39
A2 Web Hosting
Creative Commons License
GoDaddy
Look for:

loaded 2017-12-13 19:52:16 • last modified 2010-11-18 10:43:29
Privacy PolicyDisclaimer
• wx.awcolley.com is powered by PmWiki v.2002016 •
• all content (unless otherwise noted) © 2017 A W Colley